createdAt,value
2018-02-12T00:02:22.455Z,1.30
2018-02-12T00:04:53.485Z,1.30
2018-02-12T00:07:27.307Z,1.30
2018-02-12T00:09:55.734Z,1.30
2018-02-12T00:12:24.046Z,1.30
2018-02-12T00:14:52.589Z,1.30
2018-02-12T00:17:20.911Z,1.30
2018-02-12T00:19:49.353Z,1.30
2018-02-12T00:22:17.779Z,1.30
2018-02-12T00:24:46.134Z,1.30
2018-02-12T00:27:17.872Z,1.30
2018-02-12T00:29:46.656Z,1.30
2018-02-12T00:32:15.071Z,1.30
2018-02-12T00:34:43.496Z,1.20
2018-02-12T00:37:12.594Z,1.20
2018-02-12T00:39:40.902Z,1.20
2018-02-12T00:42:09.367Z,1.30
2018-02-12T00:44:37.637Z,1.30
2018-02-12T00:47:05.912Z,1.30
2018-02-12T00:49:34.237Z,1.30
2018-02-12T00:52:02.758Z,1.30
2018-02-12T00:54:31.206Z,1.30
2018-02-12T00:56:59.531Z,1.30
2018-02-12T00:59:27.845Z,1.30
2018-02-12T01:01:58.729Z,1.20
2018-02-12T01:04:27.105Z,1.30
2018-02-12T01:06:55.385Z,1.10
2018-02-12T01:09:23.773Z,1.10
2018-02-12T01:11:53.838Z,1.00
2018-02-12T01:14:23.814Z,0.90
2018-02-12T01:16:52.314Z,0.90
2018-02-12T01:19:20.602Z,0.90
2018-02-12T01:21:48.969Z,0.90
2018-02-12T01:24:17.377Z,0.80
2018-02-12T01:26:45.722Z,0.80
2018-02-12T01:29:15.848Z,0.80
2018-02-12T01:31:44.310Z,0.80
2018-02-12T01:34:13.509Z,0.90
2018-02-12T01:36:42.661Z,0.80
2018-02-12T01:39:11.411Z,0.80
2018-02-12T01:41:39.690Z,0.90
2018-02-12T01:44:08.071Z,0.90
2018-02-12T01:46:36.344Z,0.90
2018-02-12T01:49:04.711Z,0.90
2018-02-12T01:51:34.131Z,1.00
2018-02-12T01:54:02.518Z,0.90
2018-02-12T01:56:30.863Z,1.00
2018-02-12T01:58:59.358Z,1.00
2018-02-12T02:01:27.952Z,1.00
2018-02-12T02:03:56.290Z,1.00
2018-02-12T02:06:24.664Z,1.00
2018-02-12T02:08:53.056Z,1.00
2018-02-12T02:11:22.258Z,0.90
2018-02-12T02:13:51.551Z,1.00
2018-02-12T02:16:19.955Z,1.00
2018-02-12T02:18:48.389Z,0.90
2018-02-12T02:21:16.738Z,0.90
2018-02-12T02:23:45.369Z,1.00
2018-02-12T02:26:14.562Z,1.00
2018-02-12T02:28:43.907Z,1.00
2018-02-12T02:31:12.489Z,1.00
2018-02-12T02:33:40.970Z,1.00
2018-02-12T02:36:09.705Z,0.90
2018-02-12T02:38:38.363Z,0.80
2018-02-12T02:41:07.680Z,0.80
2018-02-12T02:43:35.943Z,0.70
2018-02-12T02:46:04.338Z,0.70
2018-02-12T02:48:32.733Z,0.70
2018-02-12T02:51:01.995Z,0.60
2018-02-12T02:53:30.466Z,0.60
2018-02-12T02:55:58.859Z,0.70
2018-02-12T02:58:28.646Z,0.60
2018-02-12T03:00:57.402Z,0.60
2018-02-12T03:03:25.850Z,0.60
2018-02-12T03:05:54.150Z,0.60
2018-02-12T03:08:23.348Z,0.70
2018-02-12T03:10:51.939Z,0.70
2018-02-12T03:13:21.170Z,0.60
2018-02-12T03:15:49.813Z,0.60
2018-02-12T03:18:18.187Z,0.60
2018-02-12T03:20:47.247Z,0.60
2018-02-12T03:23:15.574Z,0.60
2018-02-12T03:25:44.653Z,0.70
2018-02-12T03:28:13.889Z,0.60
2018-02-12T03:30:42.458Z,0.60
2018-02-12T03:33:10.948Z,0.60
2018-02-12T03:35:39.675Z,0.60
2018-02-12T03:38:09.354Z,0.60
2018-02-12T03:40:37.894Z,0.70
2018-02-12T03:43:06.816Z,0.70
2018-02-12T03:45:40.568Z,0.70
2018-02-12T03:50:45.433Z,0.70
2018-02-12T03:53:15.314Z,0.70
2018-02-12T03:55:43.793Z,0.70
2018-02-12T03:58:12.373Z,0.70
2018-02-12T04:00:43.051Z,0.70
2018-02-12T04:03:11.116Z,0.70
2018-02-12T04:05:41.357Z,0.80
2018-02-12T04:08:11.215Z,0.70
2018-02-12T04:10:39.068Z,0.80
2018-02-12T04:13:08.049Z,0.80
2018-02-12T04:15:40.614Z,0.80
2018-02-12T04:18:09.617Z,0.90
2018-02-12T04:20:37.606Z,0.80
2018-02-12T04:23:05.614Z,0.80
2018-02-12T04:25:39.755Z,0.80
2018-02-12T04:28:09.444Z,0.70
2018-02-12T04:30:38.075Z,0.70
2018-02-12T04:33:07.642Z,0.70
2018-02-12T04:35:36.134Z,0.70
2018-02-12T04:38:06.147Z,0.70
2018-02-12T04:40:34.028Z,0.70
2018-02-12T04:43:02.307Z,0.70
2018-02-12T04:45:30.791Z,0.60
2018-02-12T04:48:00.776Z,0.70
2018-02-12T04:50:30.141Z,0.60
2018-02-12T04:52:58.373Z,0.60
2018-02-12T04:55:26.526Z,0.60
2018-02-12T04:57:54.413Z,0.60
2018-02-12T05:00:22.342Z,0.60
2018-02-12T05:02:50.558Z,0.70
2018-02-12T05:05:18.470Z,0.70
2018-02-12T05:07:46.376Z,0.70
2018-02-12T05:10:14.288Z,0.70
2018-02-12T05:13:09.872Z,0.70
2018-02-12T05:15:37.942Z,0.70
2018-02-12T05:18:05.870Z,0.70
2018-02-12T05:20:33.908Z,0.70
2018-02-12T05:23:02.055Z,0.70
2018-02-12T05:25:30.030Z,0.60
2018-02-12T05:27:57.921Z,0.60
2018-02-12T05:30:25.934Z,0.60
2018-02-12T05:32:54.576Z,0.60
2018-02-12T05:35:22.793Z,0.60
2018-02-12T05:37:51.987Z,0.70
2018-02-12T05:40:20.671Z,0.70
2018-02-12T05:42:48.640Z,0.70
2018-02-12T05:45:17.326Z,0.60
2018-02-12T05:47:45.327Z,0.60
2018-02-12T05:50:13.562Z,0.60
2018-02-12T05:52:41.632Z,0.70
2018-02-12T05:55:09.487Z,0.70
2018-02-12T05:57:37.526Z,0.70
2018-02-12T06:00:05.534Z,0.70
2018-02-12T06:02:33.491Z,0.70
2018-02-12T06:05:01.760Z,0.60
2018-02-12T06:07:29.656Z,0.60
2018-02-12T06:09:58.391Z,0.60
2018-02-12T06:12:26.258Z,0.60
2018-02-12T06:14:54.480Z,0.60
2018-02-12T06:17:24.556Z,0.50
2018-02-12T06:19:52.541Z,0.50
2018-02-12T06:22:22.714Z,0.50
2018-02-12T06:24:50.633Z,0.40
2018-02-12T06:27:18.558Z,0.40
2018-02-12T06:29:46.670Z,0.40
2018-02-12T06:32:14.870Z,0.40
2018-02-12T06:34:43.499Z,0.30
2018-02-12T06:37:11.754Z,0.30
2018-02-12T06:39:39.694Z,0.50
2018-02-12T06:42:07.737Z,0.50
2018-02-12T06:44:35.706Z,0.50
2018-02-12T06:47:03.655Z,0.50
2018-02-12T06:49:31.758Z,0.60
2018-02-12T06:51:59.746Z,0.60
2018-02-12T06:54:28.410Z,0.50
2018-02-12T06:56:56.411Z,0.60
2018-02-12T06:59:24.346Z,0.60
2018-02-12T07:01:52.753Z,0.60
2018-02-12T07:04:21.480Z,0.60
2018-02-12T07:06:49.636Z,0.60
2018-02-12T07:09:17.567Z,0.60
2018-02-12T07:11:46.213Z,0.60
2018-02-12T07:14:14.132Z,0.60
2018-02-12T07:16:43.294Z,0.60
2018-02-12T07:19:11.606Z,0.60
2018-02-12T07:21:39.929Z,0.70
2018-02-12T07:24:07.999Z,0.70
2018-02-12T07:26:35.973Z,0.70
2018-02-12T07:29:03.962Z,0.70
2018-02-12T07:31:32.241Z,0.70
2018-02-12T07:34:00.155Z,0.70
2018-02-12T07:36:28.242Z,0.70
2018-02-12T07:38:57.270Z,0.80
2018-02-12T07:41:25.318Z,0.80
2018-02-12T07:43:53.566Z,0.90
2018-02-12T07:46:21.684Z,0.90
2018-02-12T07:48:49.578Z,0.90
2018-02-12T07:51:17.558Z,0.90
2018-02-12T07:53:45.558Z,0.90
2018-02-12T07:56:13.842Z,1.00
2018-02-12T07:58:42.158Z,1.00
2018-02-12T08:01:11.496Z,0.80
2018-02-12T08:03:39.591Z,0.80
2018-02-12T08:06:10.491Z,0.80
2018-02-12T08:08:39.380Z,0.80
2018-02-12T08:11:07.382Z,0.80
2018-02-12T08:13:35.403Z,0.90
2018-02-12T08:16:04.166Z,1.00
2018-02-12T08:18:32.372Z,1.00
2018-02-12T08:21:00.311Z,1.10
2018-02-12T08:23:29.449Z,1.20
2018-02-12T08:25:58.956Z,1.40
2018-02-12T08:28:27.779Z,1.50
2018-02-12T08:30:55.888Z,1.50
2018-02-12T08:33:23.792Z,1.50
2018-02-12T08:35:52.010Z,1.50
2018-02-12T08:38:20.462Z,1.60
2018-02-12T08:40:48.819Z,1.50
2018-02-12T08:43:16.913Z,1.60
2018-02-12T08:45:44.858Z,1.60
2018-02-12T08:48:13.035Z,1.70
2018-02-12T08:50:41.235Z,1.60
2018-02-12T08:53:09.842Z,1.60
2018-02-12T08:55:37.979Z,1.70
2018-02-12T08:58:05.932Z,1.50
2018-02-12T09:00:34.204Z,1.60
2018-02-12T09:03:02.438Z,1.60
2018-02-12T09:05:31.398Z,1.80
2018-02-12T09:07:59.902Z,1.80
2018-02-12T09:10:27.959Z,1.80
2018-02-12T09:12:55.921Z,1.70
2018-02-12T09:15:23.975Z,1.70
2018-02-12T09:17:52.264Z,1.60
2018-02-12T09:20:21.187Z,1.80
2018-02-12T09:22:49.319Z,1.90
2018-02-12T09:25:17.774Z,1.90
2018-02-12T09:27:46.172Z,2.20
2018-02-12T09:30:14.883Z,2.20
2018-02-12T09:32:44.079Z,2.20
2018-02-12T09:35:12.416Z,2.30
2018-02-12T09:37:41.090Z,2.30
2018-02-12T09:40:09.701Z,2.30
2018-02-12T09:42:38.155Z,2.10
2018-02-12T09:45:06.112Z,2.00
2018-02-12T09:47:35.228Z,1.80
2018-02-12T09:50:04.078Z,1.80
2018-02-12T09:52:34.059Z,2.00
2018-02-12T09:55:02.389Z,2.00
2018-02-12T09:57:31.129Z,1.90
2018-02-12T09:59:59.142Z,1.80
2018-02-12T10:02:27.847Z,1.90
2018-02-12T10:04:55.837Z,1.90
2018-02-12T10:07:23.748Z,2.00
2018-02-12T10:09:52.173Z,2.10
2018-02-12T10:12:20.196Z,2.20
2018-02-12T10:14:48.313Z,2.30
2018-02-12T10:17:16.317Z,2.30
2018-02-12T10:19:44.487Z,2.40
2018-02-12T10:22:13.337Z,2.50
2018-02-12T10:24:41.297Z,2.40
2018-02-12T10:27:09.227Z,2.40
2018-02-12T10:29:37.446Z,2.30
2018-02-12T10:32:05.362Z,2.50
2018-02-12T10:34:33.382Z,2.70
2018-02-12T10:37:01.653Z,2.70
2018-02-12T10:39:29.678Z,2.60
2018-02-12T10:41:57.699Z,2.90
2018-02-12T10:44:25.641Z,3.10
2018-02-12T10:46:54.250Z,2.80
2018-02-12T10:49:22.319Z,2.80
2018-02-12T10:51:50.422Z,2.50
2018-02-12T10:54:18.318Z,2.90
2018-02-12T10:56:46.303Z,2.90
2018-02-12T10:59:15.128Z,3.00
2018-02-12T11:01:43.123Z,2.90
2018-02-12T11:04:12.003Z,2.50
2018-02-12T11:06:39.859Z,2.50
2018-02-12T11:09:07.775Z,2.60
2018-02-12T11:11:35.765Z,2.40
2018-02-12T11:14:03.711Z,2.60
2018-02-12T11:16:31.622Z,2.60
2018-02-12T11:18:59.527Z,2.80
2018-02-12T11:21:27.494Z,2.90
2018-02-12T11:23:56.272Z,3.30
2018-02-12T11:26:24.202Z,3.30
2018-02-12T11:28:52.274Z,3.50
2018-02-12T11:31:20.556Z,3.40
2018-02-12T11:33:49.368Z,3.10
2018-02-12T11:36:17.645Z,3.20
2018-02-12T11:38:45.508Z,3.70
2018-02-12T11:41:13.576Z,4.10
2018-02-12T11:43:41.563Z,4.20
2018-02-12T11:46:09.789Z,4.20
2018-02-12T11:48:38.132Z,3.70
2018-02-12T11:51:06.186Z,3.70
2018-02-12T11:53:34.421Z,3.80
2018-02-12T11:56:02.896Z,3.40
2018-02-12T11:58:31.130Z,3.50
2018-02-12T12:00:59.040Z,3.30
2018-02-12T12:03:27.245Z,3.00
2018-02-12T12:05:55.355Z,3.10
2018-02-12T12:08:24.073Z,3.40
2018-02-12T12:10:52.374Z,3.40
2018-02-12T12:13:21.654Z,3.40
2018-02-12T12:15:49.738Z,3.30
2018-02-12T12:18:17.994Z,3.30
2018-02-12T12:20:46.135Z,3.40
2018-02-12T12:23:15.151Z,3.40
2018-02-12T12:25:43.273Z,3.40
2018-02-12T12:28:11.506Z,3.10
2018-02-12T12:30:39.568Z,3.20
2018-02-12T12:33:07.740Z,3.30
2018-02-12T12:35:35.767Z,3.70
2018-02-12T12:38:03.831Z,4.00
2018-02-12T12:40:32.036Z,3.90
2018-02-12T12:43:00.655Z,3.50
2018-02-12T12:45:28.570Z,3.50
2018-02-12T12:47:56.505Z,3.80
2018-02-12T12:50:24.439Z,3.70
2018-02-12T12:52:52.419Z,3.70
2018-02-12T12:55:21.642Z,3.60
2018-02-12T12:57:49.845Z,3.60
2018-02-12T13:00:18.613Z,3.60
2018-02-12T13:02:46.732Z,3.60
2018-02-12T13:05:14.786Z,3.60
2018-02-12T13:07:43.578Z,3.60
2018-02-12T13:10:12.009Z,3.60
2018-02-12T13:12:41.182Z,3.20
2018-02-12T13:15:09.128Z,3.20
2018-02-12T13:17:37.429Z,3.10
2018-02-12T13:20:05.415Z,3.00
2018-02-12T13:22:33.385Z,3.10
2018-02-12T13:25:01.656Z,3.10
2018-02-12T13:27:29.487Z,3.10
2018-02-12T13:29:58.212Z,3.30
2018-02-12T13:32:26.254Z,3.30
2018-02-12T13:34:54.176Z,2.80
2018-02-12T13:37:22.300Z,2.90
2018-02-12T13:39:50.339Z,3.10
2018-02-12T13:42:20.475Z,3.20
2018-02-12T13:44:48.588Z,3.30
2018-02-12T13:47:16.679Z,3.10
2018-02-12T13:49:44.534Z,3.00
2018-02-12T13:52:12.552Z,3.00
2018-02-12T13:54:41.210Z,3.40
2018-02-12T13:57:09.252Z,3.30
2018-02-12T13:59:37.370Z,3.70
2018-02-12T14:02:05.290Z,3.40
2018-02-12T14:04:33.221Z,3.60
2018-02-12T14:07:01.563Z,3.80
2018-02-12T14:09:30.192Z,3.50
2018-02-12T14:11:58.085Z,3.50
2018-02-12T14:14:25.925Z,3.50
2018-02-12T14:16:53.922Z,3.40
2018-02-12T14:19:21.938Z,3.50
2018-02-12T14:21:51.076Z,3.40
2018-02-12T14:24:19.044Z,3.30
2018-02-12T14:26:46.926Z,3.30
2018-02-12T14:29:14.821Z,3.40
2018-02-12T14:31:42.887Z,3.20
2018-02-12T14:34:11.124Z,3.20
2018-02-12T14:36:39.733Z,3.00
2018-02-12T14:39:09.247Z,2.90
2018-02-12T14:41:37.425Z,2.90
2018-02-12T14:44:05.324Z,2.90
2018-02-12T14:46:34.248Z,3.00
2018-02-12T14:49:02.564Z,3.00
2018-02-12T14:51:30.575Z,3.00
2018-02-12T14:53:58.471Z,3.30
2018-02-12T14:56:26.381Z,3.30
2018-02-12T14:58:55.239Z,3.30
2018-02-12T15:01:23.222Z,3.20
2018-02-12T15:03:51.435Z,3.10
2018-02-12T15:06:20.021Z,2.70
2018-02-12T15:08:47.903Z,2.70
2018-02-12T15:11:16.163Z,2.80
2018-02-12T15:13:44.018Z,2.90
2018-02-12T15:16:12.118Z,3.00
2018-02-12T15:18:39.953Z,2.90
2018-02-12T15:21:07.976Z,2.80
2018-02-12T15:23:35.981Z,2.70
2018-02-12T15:26:03.962Z,2.80
2018-02-12T15:28:31.958Z,2.90
2018-02-12T15:31:00.003Z,2.70
2018-02-12T15:33:27.927Z,2.70
2018-02-12T15:35:55.884Z,2.90
2018-02-12T15:38:24.651Z,2.70
2018-02-12T15:40:53.042Z,2.70
2018-02-12T15:43:21.575Z,2.70
2018-02-12T15:45:50.500Z,2.60
2018-02-12T15:48:18.566Z,2.60
2018-02-12T15:50:46.587Z,2.40
2018-02-12T15:53:15.275Z,2.30
2018-02-12T15:55:43.297Z,2.20
2018-02-12T15:58:12.119Z,2.10
2018-02-12T16:00:40.127Z,2.00
2018-02-12T16:03:08.026Z,2.10
2018-02-12T16:05:35.993Z,2.20
2018-02-12T16:08:04.085Z,2.10
2018-02-12T16:10:32.156Z,2.00
2018-02-12T16:13:01.139Z,1.90
2018-02-12T16:15:29.273Z,1.90
2018-02-12T16:17:57.381Z,1.90
2018-02-12T16:20:25.656Z,1.90
2018-02-12T16:22:53.824Z,2.00
2018-02-12T16:25:23.230Z,1.80
2018-02-12T16:27:52.291Z,1.80
2018-02-12T16:30:20.333Z,1.80
2018-02-12T16:32:48.661Z,1.70
2018-02-12T16:35:17.772Z,1.60
2018-02-12T16:37:46.054Z,1.60
2018-02-12T16:40:14.221Z,1.60
2018-02-12T16:42:42.413Z,1.50
2018-02-12T16:45:10.531Z,1.50
2018-02-12T16:47:38.685Z,1.50
2018-02-12T16:50:07.636Z,1.50
2018-02-12T16:52:36.455Z,1.40
2018-02-12T16:55:05.246Z,1.40
2018-02-12T16:57:33.385Z,1.30
2018-02-12T17:00:01.411Z,1.30
2018-02-12T17:02:29.583Z,1.30
2018-02-12T17:04:57.724Z,1.20
2018-02-12T17:07:26.467Z,1.20
2018-02-12T17:09:55.371Z,1.20
2018-02-12T17:12:23.432Z,1.10
2018-02-12T17:14:51.841Z,1.10
2018-02-12T17:17:19.805Z,1.00
2018-02-12T17:19:47.767Z,1.00
2018-02-12T17:22:15.712Z,0.90
2018-02-12T17:24:43.788Z,0.90
2018-02-12T17:27:12.568Z,0.90
2018-02-12T17:29:40.758Z,0.80
2018-02-12T17:32:09.056Z,0.70
2018-02-12T17:34:37.320Z,0.70
2018-02-12T17:37:05.472Z,0.70
2018-02-12T17:39:33.722Z,0.60
2018-02-12T17:42:02.027Z,0.50
2018-02-12T17:44:30.128Z,0.50
2018-02-12T17:46:58.289Z,0.40
2018-02-12T17:49:26.253Z,0.40
2018-02-12T17:51:54.305Z,0.40
2018-02-12T17:54:22.290Z,0.40
2018-02-12T17:56:50.973Z,0.40
2018-02-12T17:59:18.961Z,0.30
2018-02-12T18:01:47.005Z,0.30
2018-02-12T18:04:15.804Z,0.30
2018-02-12T18:06:44.034Z,0.20
2018-02-12T18:09:12.145Z,0.30
2018-02-12T18:11:40.227Z,0.30
2018-02-12T18:14:08.248Z,0.30
2018-02-12T18:16:36.185Z,0.20
2018-02-12T18:19:04.942Z,0.10
2018-02-12T18:21:33.327Z,0.00
2018-02-12T18:24:01.379Z,0.10
2018-02-12T18:26:29.450Z,0.00
2018-02-12T18:28:57.496Z,0.00
2018-02-12T18:31:25.501Z,0.00
2018-02-12T18:33:53.409Z,0.00
2018-02-12T18:36:21.464Z,0.00
2018-02-12T18:38:49.821Z,-0.10
2018-02-12T18:41:18.230Z,-0.10
2018-02-12T18:43:46.315Z,-0.10
2018-02-12T18:46:15.043Z,-0.10
2018-02-12T18:48:43.780Z,-0.20
2018-02-12T18:51:12.004Z,-0.20
2018-02-12T18:53:40.791Z,-0.30
2018-02-12T18:56:09.344Z,-0.30
2018-02-12T18:58:37.287Z,-0.30
2018-02-12T19:01:05.274Z,-0.20
2018-02-12T19:03:33.481Z,-0.30
2018-02-12T19:06:01.627Z,-0.30
2018-02-12T19:08:29.839Z,-0.40
2018-02-12T19:10:57.874Z,-0.40
2018-02-12T19:13:25.842Z,-0.40
2018-02-12T19:15:53.791Z,-0.40
2018-02-12T19:18:22.225Z,-0.40
2018-02-12T19:20:50.470Z,-0.30
2018-02-12T19:23:18.458Z,-0.30
2018-02-12T19:25:46.403Z,-0.30
2018-02-12T19:28:15.190Z,-0.30
2018-02-12T19:30:44.142Z,-0.30
2018-02-12T19:33:12.277Z,-0.30
2018-02-12T19:35:40.591Z,-0.40
2018-02-12T19:38:09.391Z,-0.50
2018-02-12T19:40:37.438Z,-0.50
2018-02-12T19:43:05.786Z,-0.50
2018-02-12T19:45:33.774Z,-0.60
2018-02-12T19:48:01.844Z,-0.60
2018-02-12T19:50:30.233Z,-0.60
2018-02-12T19:52:59.509Z,-0.60
2018-02-12T19:55:27.531Z,-0.60
2018-02-12T19:57:56.408Z,-0.60
2018-02-12T20:00:25.120Z,-0.60
2018-02-12T20:02:53.789Z,-0.60
2018-02-12T20:05:21.905Z,-0.70
2018-02-12T20:07:50.240Z,-0.60
2018-02-12T20:10:27.776Z,-0.50
2018-02-12T20:12:58.006Z,-0.60
2018-02-12T20:15:31.359Z,-0.70
2018-02-12T20:17:59.820Z,-0.70
2018-02-12T20:20:27.746Z,-0.70
2018-02-12T20:22:57.838Z,-0.80
2018-02-12T20:25:25.747Z,-0.70
2018-02-12T20:27:53.796Z,-0.80
2018-02-12T20:30:22.041Z,-0.90
2018-02-12T20:32:51.218Z,-0.80
2018-02-12T20:35:19.959Z,-0.90
2018-02-12T20:37:48.722Z,-1.00
2018-02-12T20:40:16.801Z,-1.00
2018-02-12T20:42:44.826Z,-1.00
2018-02-12T20:45:12.925Z,-1.00
2018-02-12T20:47:41.144Z,-0.90
2018-02-12T20:50:09.817Z,-1.00
2018-02-12T20:52:37.829Z,-1.00
2018-02-12T20:55:06.545Z,-0.90
2018-02-12T20:57:34.689Z,-1.00
2018-02-12T21:00:05.083Z,-0.90
2018-02-12T21:02:33.335Z,-1.00
2018-02-12T21:05:02.517Z,-0.90
2018-02-12T21:07:30.659Z,-0.90
2018-02-12T21:09:59.428Z,-1.00
2018-02-12T21:12:27.432Z,-1.00
2018-02-12T21:14:55.337Z,-0.90
2018-02-12T21:17:24.074Z,-1.00
2018-02-12T21:19:52.094Z,-1.00
2018-02-12T21:22:20.435Z,-1.10
2018-02-12T21:24:48.618Z,-1.10
2018-02-12T21:27:16.607Z,-1.10
2018-02-12T21:29:44.586Z,-1.20
2018-02-12T21:32:12.885Z,-1.20
2018-02-12T21:34:40.929Z,-1.20
2018-02-12T21:37:08.842Z,-1.10
2018-02-12T21:39:37.001Z,-1.10
2018-02-12T21:42:04.937Z,-1.00
2018-02-12T21:44:32.818Z,-1.00
2018-02-12T21:47:00.849Z,-1.10
2018-02-12T21:49:28.779Z,-1.10
2018-02-12T21:51:57.463Z,-1.00
2018-02-12T21:54:26.669Z,-1.00
2018-02-12T21:56:54.586Z,-1.10
2018-02-12T21:59:22.633Z,-1.00
2018-02-12T22:01:50.674Z,-1.10
2018-02-12T22:04:18.767Z,-1.10
2018-02-12T22:06:46.681Z,-1.20
2018-02-12T22:09:14.595Z,-1.20
2018-02-12T22:11:42.831Z,-1.20
2018-02-12T22:14:11.128Z,-1.20
2018-02-12T22:16:39.835Z,-1.30
2018-02-12T22:19:07.747Z,-1.30
2018-02-12T22:21:35.842Z,-1.20
2018-02-12T22:24:04.542Z,-1.30
2018-02-12T22:26:33.171Z,-1.20
2018-02-12T22:29:01.183Z,-1.30
2018-02-12T22:31:29.838Z,-1.20
2018-02-12T22:33:57.799Z,-1.30
2018-02-12T22:36:26.472Z,-1.30
2018-02-12T22:38:54.295Z,-1.30
2018-02-12T22:41:23.086Z,-1.30
2018-02-12T22:43:52.147Z,-1.40
2018-02-12T22:46:20.013Z,-1.40
2018-02-12T22:48:47.879Z,-1.40
2018-02-12T22:51:15.927Z,-1.40
2018-02-12T22:53:43.903Z,-1.40
2018-02-12T22:56:11.886Z,-1.40
2018-02-12T22:58:39.779Z,-1.40
2018-02-12T23:01:08.496Z,-1.50
2018-02-12T23:03:36.391Z,-1.50
2018-02-12T23:06:04.362Z,-1.40
2018-02-12T23:08:32.288Z,-1.40
2018-02-12T23:11:00.428Z,-1.30
2018-02-12T23:13:28.411Z,-1.30
2018-02-12T23:15:57.498Z,-1.20
2018-02-12T23:18:25.354Z,-1.30
2018-02-12T23:20:54.575Z,-1.30
2018-02-12T23:23:23.207Z,-1.30
2018-02-12T23:25:51.301Z,-1.30
2018-02-12T23:28:19.223Z,-1.30
2018-02-12T23:30:47.110Z,-1.30
2018-02-12T23:33:15.077Z,-1.30
2018-02-12T23:35:43.296Z,-1.30
2018-02-12T23:38:25.791Z,-1.40
2018-02-12T23:40:54.137Z,-1.30
2018-02-12T23:43:22.524Z,-1.30
2018-02-12T23:45:51.317Z,-1.30
2018-02-12T23:48:19.355Z,-1.30
2018-02-12T23:50:47.405Z,-1.30
2018-02-12T23:53:16.388Z,-1.30
2018-02-12T23:55:50.169Z,-1.30
2018-02-12T23:58:21.511Z,-1.30
